Time;durP1;ratioP1;P1;durP2;ratioP2;P2;SDS_P1;SDS_P2;PMS_P1;PMS_P2;Temp;Humidity;BMP_temperature;BMP_pressure;BME280_temperature;BME280_humidity;BME280_pressure;Samples;Min_cycle;Max_cycle;Signal;HPM_P1;HPM_P2
2023/05/27 00:01:22;;;;;;;6.90;6.03;;;;;;;16.20;93.83;94712.88;5069608;28;20195;-44
2023/05/27 00:03:49;;;;;;;12.20;10.07;;;;;;;16.14;96.10;94691.13;5069791;28;20198;-45
2023/05/27 00:06:15;;;;;;;10.80;9.47;;;;;;;16.10;96.48;94707.94;5069597;28;20677;-46
2023/05/27 00:08:42;;;;;;;11.50;9.67;;;;;;;15.99;97.61;94718.66;5069882;28;20190;-45
2023/05/27 00:11:09;;;;;;;14.57;9.70;;;;;;;15.93;97.55;94725.31;5070347;28;20683;-44
2023/05/27 00:13:37;;;;;;;11.10;9.90;;;;;;;15.86;97.82;94719.22;5072146;28;20193;-46
2023/05/27 00:16:04;;;;;;;15.07;10.93;;;;;;;15.74;98.83;94715.41;5070706;28;20194;-48
2023/05/27 00:18:32;;;;;;;17.37;11.30;;;;;;;15.71;99.51;94724.25;5071367;28;20554;-46
2023/05/27 00:20:59;;;;;;;13.97;12.50;;;;;;;15.69;99.65;94718.47;5071205;28;20277;-44
2023/05/27 00:23:26;;;;;;;12.77;10.60;;;;;;;15.68;99.79;94719.47;5069889;28;20194;-45
2023/05/27 00:25:53;;;;;;;15.20;10.33;;;;;;;15.66;100.00;94715.44;5069695;28;20206;-45
2023/05/27 00:28:19;;;;;;;16.13;10.57;;;;;;;15.61;100.00;94710.75;5070187;28;20230;-46
2023/05/27 00:30:47;;;;;;;10.87;9.60;;;;;;;15.64;100.00;94719.94;5070704;28;20248;-44
2023/05/27 00:33:14;;;;;;;13.40;9.17;;;;;;;15.62;100.00;94714.94;5071286;28;20615;-45
2023/05/27 00:35:41;;;;;;;9.90;8.90;;;;;;;15.56;100.00;94715.59;5074627;28;20201;-47
2023/05/27 00:38:08;;;;;;;10.67;7.60;;;;;;;15.49;99.49;94704.34;5074671;28;20251;-46
2023/05/27 00:40:35;;;;;;;6.47;5.90;;;;;;;15.45;97.71;94696.16;5072760;28;20244;-46
2023/05/27 00:43:02;;;;;;;5.40;4.90;;;;;;;15.41;96.94;94699.22;5070063;28;20294;-48
2023/05/27 00:45:30;;;;;;;6.63;5.57;;;;;;;15.45;96.48;94685.84;5071822;28;20300;-46
2023/05/27 00:47:58;;;;;;;5.13;4.63;;;;;;;15.41;95.92;94679.41;5072129;28;20194;-46
2023/05/27 00:50:26;;;;;;;8.93;5.20;;;;;;;15.55;95.30;94685.66;5070027;28;20194;-46
2023/05/27 00:52:56;;;;;;;5.00;4.60;;;;;;;15.55;95.24;94678.72;5069332;28;20599;-44
2023/05/27 00:55:23;;;;;;;7.23;5.13;;;;;;;15.65;95.11;94670.00;5069209;28;20198;-45
2023/05/27 00:57:53;;;;;;;4.83;4.43;;;;;;;15.69;94.44;94663.53;5069044;28;20197;-45
2023/05/27 01:00:20;;;;;;;4.60;4.20;;;;;;;15.74;93.26;94662.06;5069083;28;20187;-44
2023/05/27 01:02:47;;;;;;;3.93;3.63;;;;;;;15.77;92.27;94650.59;5069368;28;20279;-44
2023/05/27 01:05:17;;;;;;;4.40;4.00;;;;;;;15.79;91.79;94643.50;5068602;28;20732;-45
2023/05/27 01:07:53;;;;;;;4.27;3.83;;;;;;;15.97;92.66;94653.53;5069026;28;20259;-44
2023/05/27 01:10:27;;;;;;;3.80;3.40;;;;;;;15.98;92.26;94650.00;5069354;28;20628;-45
2023/05/27 01:13:00;;;;;;;4.53;3.50;;;;;;;15.94;91.96;94641.78;5068895;28;20281;-45
2023/05/27 01:15:28;;;;;;;4.17;2.77;;;;;;;15.96;91.94;94647.56;5068874;28;20633;-42
2023/05/27 01:17:57;;;;;;;3.40;3.10;;;;;;;15.98;91.70;94640.47;5068519;28;20178;-44
2023/05/27 01:20:26;;;;;;;2.73;2.53;;;;;;;16.00;90.77;94629.97;5068983;28;20189;-43
2023/05/27 01:22:57;;;;;;;2.37;2.27;;;;;;;16.02;90.10;94620.31;5069505;28;20193;-45
2023/05/27 01:25:24;;;;;;;2.07;1.87;;;;;;;15.92;88.88;94593.91;5069127;28;20611;-45
2023/05/27 01:27:52;;;;;;;2.60;2.40;;;;;;;16.09;89.75;94616.03;5068102;28;20728;-43
2023/05/27 01:30:20;;;;;;;2.23;2.10;;;;;;;16.01;89.21;94600.63;5068625;28;20278;-43
2023/05/27 01:32:54;;;;;;;2.80;2.60;;;;;;;16.12;91.24;94614.91;5069169;28;20279;-45
2023/05/27 01:35:26;;;;;;;3.37;2.67;;;;;;;16.08;92.57;94604.13;5068962;28;20193;-45
2023/05/27 01:37:56;;;;;;;4.00;2.70;;;;;;;16.05;93.69;94602.69;5068795;28;20190;-44
2023/05/27 01:40:24;;;;;;;3.40;2.30;;;;;;;15.98;93.85;94593.25;5068764;28;20186;-46
2023/05/27 01:42:51;;;;;;;2.43;2.23;;;;;;;15.88;93.17;94579.75;5068897;28;20194;-45
2023/05/27 01:45:18;;;;;;;2.30;2.17;;;;;;;15.94;93.19;94592.00;5068534;28;20226;-44
2023/05/27 01:47:45;;;;;;;2.40;2.30;;;;;;;15.96;94.16;94597.75;5069121;28;20210;-45
2023/05/27 01:50:12;;;;;;;3.03;2.83;;;;;;;15.93;93.63;94604.09;5068166;28;20273;-46
2023/05/27 01:52:39;;;;;;;2.37;2.17;;;;;;;15.86;92.15;94598.00;5071141;28;20198;-46
2023/05/27 01:55:09;;;;;;;2.40;2.27;;;;;;;15.93;92.30;94618.72;5072152;28;20225;-46
2023/05/27 01:57:35;;;;;;;2.27;2.00;;;;;;;15.89;93.14;94613.13;5074592;28;20573;-46
2023/05/27 02:00:04;;;;;;;4.60;2.80;;;;;;;15.73;94.32;94593.41;5073571;28;20638;-46
2023/05/27 02:02:31;;;;;;;4.70;2.80;;;;;;;15.81;95.94;94623.50;5072125;28;20190;-44
2023/05/27 02:04:58;;;;;;;3.97;3.23;;;;;;;15.77;96.13;94614.50;5072459;28;20228;-45
2023/05/27 02:07:26;;;;;;;3.17;2.97;;;;;;;15.71;96.43;94618.53;5071394;28;20646;-46
2023/05/27 02:09:53;;;;;;;3.20;2.77;;;;;;;15.66;96.97;94618.25;5072131;28;20278;-45
2023/05/27 02:12:21;;;;;;;4.03;3.07;;;;;;;15.62;97.26;94622.13;5071751;28;20235;-43
2023/05/27 02:14:49;;;;;;;4.77;3.90;;;;;;;15.59;97.30;94619.91;5071930;28;20259;-45
2023/05/27 02:17:16;;;;;;;3.80;3.50;;;;;;;15.55;97.88;94618.63;5071259;28;20252;-44
2023/05/27 02:19:43;;;;;;;5.53;4.30;;;;;;;15.48;97.96;94612.53;5072041;28;20218;-45
2023/05/27 02:22:10;;;;;;;4.37;3.80;;;;;;;15.46;98.45;94615.31;5071352;28;20735;-46
2023/05/27 02:24:37;;;;;;;4.70;4.30;;;;;;;15.45;98.56;94621.41;5071954;28;20243;-45
2023/05/27 02:27:05;;;;;;;6.30;4.30;;;;;;;15.46;98.79;94612.72;5071353;28;20638;-46
2023/05/27 02:29:33;;;;;;;4.43;4.03;;;;;;;15.42;99.35;94615.81;5071340;28;20198;-44
2023/05/27 02:32:00;;;;;;;5.13;4.63;;;;;;;15.45;99.84;94616.25;5071778;28;20190;-45
2023/05/27 02:34:27;;;;;;;5.17;4.70;;;;;;;15.46;99.71;94614.50;5071540;28;20236;-44
2023/05/27 02:36:54;;;;;;;5.93;5.43;;;;;;;15.26;100.00;94590.91;5072247;28;20206;-44
2023/05/27 02:39:21;;;;;;;5.60;5.10;;;;;;;15.44;100.00;94627.53;5071212;28;20283;-44
2023/05/27 02:41:48;;;;;;;5.90;5.40;;;;;;;15.45;100.00;94629.13;5071190;28;20649;-45
2023/05/27 02:44:15;;;;;;;5.97;5.43;;;;;;;15.49;100.00;94627.03;5071329;28;20186;-45
2023/05/27 02:46:43;;;;;;;6.37;5.60;;;;;;;15.55;100.00;94629.75;5071472;28;20214;-44
2023/05/27 02:49:10;;;;;;;7.00;5.83;;;;;;;15.53;100.00;94623.94;5070826;28;20202;-43
2023/05/27 02:51:37;;;;;;;7.63;6.40;;;;;;;15.51;100.00;94617.38;5071091;28;20650;-45
2023/05/27 02:54:04;;;;;;;7.17;6.47;;;;;;;15.31;100.00;94593.78;5071073;28;20682;-45
2023/05/27 02:56:30;;;;;;;5.80;5.20;;;;;;;15.42;100.00;94621.75;5071541;28;20190;-44
2023/05/27 02:58:57;;;;;;;6.03;5.40;;;;;;;15.42;100.00;94624.34;5071131;28;20186;-45
2023/05/27 03:01:24;;;;;;;7.03;5.33;;;;;;;15.43;100.00;94620.00;5070809;28;20661;-45
2023/05/27 03:03:52;;;;;;;6.87;5.80;;;;;;;15.43;100.00;94617.41;5070602;28;20222;-47
2023/05/27 03:06:19;;;;;;;7.17;4.87;;;;;;;15.44;100.00;94612.06;5071081;28;20242;-44
2023/05/27 03:08:47;;;;;;;11.37;5.30;;;;;;;15.52;100.00;94621.53;5070972;28;20640;-42
2023/05/27 03:11:13;;;;;;;5.57;5.07;;;;;;;15.50;100.00;94619.16;5070547;28;20677;-45
2023/05/27 03:13:40;;;;;;;6.83;4.93;;;;;;;15.55;100.00;94623.78;5070748;28;20227;-44
2023/05/27 03:16:07;;;;;;;8.43;4.70;;;;;;;15.50;100.00;94619.16;5070811;28;20195;-44
2023/05/27 03:18:34;;;;;;;8.53;4.60;;;;;;;15.51;100.00;94617.38;5070855;28;20638;-44
2023/05/27 03:21:02;;;;;;;5.50;4.70;;;;;;;15.49;99.77;94616.72;5070268;28;20194;-46
2023/05/27 03:23:29;;;;;;;6.00;4.20;;;;;;;15.45;99.76;94618.03;5070651;28;20277;-44
2023/05/27 03:25:56;;;;;;;4.40;4.00;;;;;;;15.46;99.55;94614.50;5070826;28;20267;-44
2023/05/27 03:28:23;;;;;;;6.50;4.03;;;;;;;15.47;98.75;94624.63;5068275;28;20708;-44
2023/05/27 03:30:50;;;;;;;4.57;4.17;;;;;;;15.49;98.67;94624.44;5070321;28;20190;-43
2023/05/27 03:33:16;;;;;;;4.13;3.77;;;;;;;15.48;98.26;94625.44;5070096;28;20182;-46
2023/05/27 03:35:43;;;;;;;5.67;4.17;;;;;;;15.49;98.61;94624.44;5070124;28;20190;-45
2023/05/27 03:38:11;;;;;;;5.33;4.03;;;;;;;15.49;98.49;94629.59;5070625;28;20194;-45
2023/05/27 03:40:38;;;;;;;6.27;5.47;;;;;;;15.49;98.70;94621.88;5070242;28;20194;-43
2023/05/27 03:43:05;;;;;;;5.87;4.30;;;;;;;15.45;98.31;94630.91;5070250;28;20190;-46
2023/05/27 03:45:32;;;;;;;4.10;3.77;;;;;;;15.47;98.31;94640.09;5070167;28;20304;-44
2023/05/27 03:47:58;;;;;;;4.57;3.90;;;;;;;15.48;98.71;94639.13;5070068;28;20179;-44
2023/05/27 03:50:25;;;;;;;4.17;3.77;;;;;;;15.52;98.45;94635.22;5070234;28;20623;-46
2023/05/27 03:52:52;;;;;;;4.23;3.83;;;;;;;15.57;98.42;94637.31;5069613;28;20217;-44
2023/05/27 03:55:21;;;;;;;4.20;3.80;;;;;;;15.63;98.02;94638.38;5069917;28;20190;-45
2023/05/27 03:57:48;;;;;;;4.97;3.67;;;;;;;15.66;98.08;94646.63;5069922;28;20588;-44
2023/05/27 04:00:16;;;;;;;3.90;3.33;;;;;;;15.65;97.17;94641.66;5070256;28;20230;-46
2023/05/27 04:02:43;;;;;;;3.70;3.40;;;;;;;15.66;97.38;94633.72;5069325;28;20244;-46
2023/05/27 04:05:10;;;;;;;3.80;3.50;;;;;;;15.74;97.16;94635.47;5069724;28;20243;-46
2023/05/27 04:07:37;;;;;;;4.97;4.17;;;;;;;15.78;97.45;94634.94;5069856;28;20235;-44
2023/05/27 04:10:04;;;;;;;4.33;3.80;;;;;;;15.80;97.38;94638.19;5071131;28;20194;-45
2023/05/27 04:12:33;;;;;;;3.83;3.53;;;;;;;15.84;97.35;94632.66;5070861;28;20178;-44
2023/05/27 04:15:00;;;;;;;5.50;3.20;;;;;;;15.92;97.03;94628.25;5069908;28;20630;-46
2023/05/27 04:17:27;;;;;;;4.17;3.87;;;;;;;16.02;96.22;94628.84;5072327;28;20281;-47
2023/05/27 04:19:54;;;;;;;4.90;4.07;;;;;;;16.06;95.41;94637.00;5072757;28;20273;-46
2023/05/27 04:22:21;;;;;;;5.57;3.83;;;;;;;16.09;95.40;94641.03;5069823;28;20187;-45
2023/05/27 04:24:48;;;;;;;4.40;4.00;;;;;;;16.10;95.90;94633.09;5070074;28;20186;-46
2023/05/27 04:27:16;;;;;;;8.10;4.03;;;;;;;16.21;96.14;94629.34;5069576;28;20241;-45
2023/05/27 04:29:45;;;;;;;9.43;4.73;;;;;;;16.29;95.42;94631.84;5069463;28;20214;-45
2023/05/27 04:32:12;;;;;;;6.80;4.20;;;;;;;16.40;94.75;94634.00;5069327;28;20273;-45
2023/05/27 04:34:41;;;;;;;4.33;3.73;;;;;;;16.48;94.15;94638.28;5069086;28;20626;-45
2023/05/27 04:37:09;;;;;;;4.87;3.90;;;;;;;16.61;93.48;94635.13;5069939;28;20187;-44
2023/05/27 04:39:36;;;;;;;5.67;3.87;;;;;;;16.83;93.22;94641.22;5069104;28;20194;-45
2023/05/27 04:42:03;;;;;;;4.03;3.73;;;;;;;17.04;92.13;94649.06;5069284;28;20190;-44
2023/05/27 04:44:30;;;;;;;3.90;3.60;;;;;;;17.14;91.36;94648.78;5069209;28;20693;-44
2023/05/27 04:46:58;;;;;;;5.70;3.53;;;;;;;17.21;90.22;94644.53;5052531;28;20976;-44
2023/05/27 04:49:25;;;;;;;5.50;3.37;;;;;;;17.26;89.80;94642.19;5049450;28;20190;-45
2023/05/27 04:51:52;;;;;;;3.90;3.60;;;;;;;17.31;89.74;94652.78;5050143;28;20202;-46
2023/05/27 04:54:19;;;;;;;3.90;3.60;;;;;;;17.42;88.85;94654.94;5067176;28;20194;-45
2023/05/27 04:56:46;;;;;;;4.00;3.60;;;;;;;17.51;88.45;94658.22;5069339;28;20316;-45
2023/05/27 04:59:16;;;;;;;3.70;3.40;;;;;;;17.56;88.49;94653.28;5069573;28;20193;-44
2023/05/27 05:02:09;;;;;;;5.67;3.63;;;;;;;17.67;88.19;94655.44;5069299;28;20186;-45
2023/05/27 05:04:37;;;;;;;3.60;3.30;;;;;;;17.83;87.91;94649.25;5069547;28;20190;-45
2023/05/27 05:07:04;;;;;;;5.37;3.50;;;;;;;18.04;87.18;94658.81;5069012;28;20292;-46
2023/05/27 05:09:31;;;;;;;5.13;3.27;;;;;;;18.19;85.18;94651.78;5069370;28;20198;-46
2023/05/27 05:11:58;;;;;;;4.17;3.77;;;;;;;18.33;83.59;94647.53;5069691;28;20269;-47
2023/05/27 05:14:25;;;;;;;3.37;3.07;;;;;;;18.47;83.01;94657.00;5069005;28;20600;-45
2023/05/27 05:16:51;;;;;;;3.53;3.23;;;;;;;18.60;82.08;94653.72;5070551;28;20187;-47
2023/05/27 05:19:18;;;;;;;4.47;3.40;;;;;;;18.81;81.51;94663.28;5073199;28;20194;-44
2023/05/27 05:21:46;;;;;;;5.93;3.17;;;;;;;18.88;80.20;94664.13;5069884;28;20182;-44
2023/05/27 05:24:13;;;;;;;4.30;3.30;;;;;;;18.82;80.11;94664.88;5070467;28;20186;-45
2023/05/27 05:26:40;;;;;;;3.40;3.10;;;;;;;18.78;80.31;94668.81;5071262;28;20218;-44
2023/05/27 05:29:07;;;;;;;3.53;3.23;;;;;;;18.76;81.62;94669.00;5077205;28;20221;-50
2023/05/27 05:31:33;;;;;;;3.30;3.00;;;;;;;18.78;82.15;94667.06;5073401;28;20193;-46
2023/05/27 05:34:00;;;;;;;4.30;3.00;;;;;;;18.85;81.23;94674.84;5073715;28;20201;-45
2023/05/27 05:36:27;;;;;;;3.27;2.97;;;;;;;18.91;81.03;94675.88;5075465;28;20190;-46
2023/05/27 05:38:55;;;;;;;3.30;3.00;;;;;;;18.91;81.03;94678.47;5080392;28;20185;-47
2023/05/27 05:41:22;;;;;;;3.73;3.43;;;;;;;18.93;80.15;94668.75;5100966;28;20186;-47
2023/05/27 05:43:49;;;;;;;6.47;3.53;;;;;;;19.00;79.39;94675.56;5101513;28;20197;-45
2023/05/27 05:46:16;;;;;;;3.40;3.10;;;;;;;18.77;79.40;94636.13;5085247;28;20252;-46
2023/05/27 05:48:42;;;;;;;3.97;3.57;;;;;;;19.12;79.46;94680.22;5083639;28;20707;-48
2023/05/27 05:51:09;;;;;;;3.67;3.37;;;;;;;19.11;79.86;94691.56;5082167;28;20569;-46
2023/05/27 05:53:36;;;;;;;4.50;4.10;;;;;;;19.15;79.92;94675.44;5075092;28;20179;-42
2023/05/27 05:56:05;;;;;;;9.03;3.93;;;;;;;19.21;79.16;94681.66;5072945;28;20244;-46
2023/05/27 05:58:31;;;;;;;9.23;3.87;;;;;;;19.08;79.13;94679.78;5072668;28;20596;-45
2023/05/27 06:00:58;;;;;;;4.07;3.73;;;;;;;19.06;79.97;94684.38;5072888;28;20622;-45
2023/05/27 06:03:25;;;;;;;5.27;4.13;;;;;;;19.02;80.60;94683.94;5072173;28;20218;-46
2023/05/27 06:05:52;;;;;;;4.90;4.40;;;;;;;18.98;80.88;94687.09;5071597;28;20191;-46
2023/05/27 06:08:19;;;;;;;4.53;3.90;;;;;;;18.93;81.48;94686.88;5072184;28;20205;-45
2023/05/27 06:10:46;;;;;;;4.87;4.47;;;;;;;18.97;81.27;94685.50;5072274;28;20182;-46
2023/05/27 06:13:14;;;;;;;5.33;4.87;;;;;;;18.95;82.18;94690.88;5072622;28;20194;-46
2023/05/27 06:15:41;;;;;;;6.37;4.97;;;;;;;19.06;81.18;94692.16;5072353;28;20190;-45
2023/05/27 06:18:07;;;;;;;7.30;4.87;;;;;;;19.15;80.51;94690.22;5073271;28;20626;-46
2023/05/27 06:20:34;;;;;;;7.43;4.57;;;;;;;19.17;80.49;94696.00;5074164;28;20194;-46
2023/05/27 06:23:01;;;;;;;7.50;4.87;;;;;;;19.30;80.42;94696.88;5072674;28;20661;-47
2023/05/27 06:25:28;;;;;;;5.10;4.60;;;;;;;19.42;80.21;94704.91;5072247;28;20288;-44
2023/05/27 06:27:55;;;;;;;6.87;4.80;;;;;;;19.49;80.10;94700.56;5071455;28;20237;-44
2023/05/27 06:30:23;;;;;;;5.83;4.90;;;;;;;19.51;79.67;94708.16;5071598;28;20193;-46
2023/05/27 06:32:50;;;;;;;9.73;5.20;;;;;;;19.35;79.19;94672.97;5071485;28;20194;-44
2023/05/27 06:35:16;;;;;;;5.10;4.60;;;;;;;19.50;78.77;94706.56;5070957;28;20195;-44
2023/05/27 06:37:43;;;;;;;4.60;4.20;;;;;;;19.21;78.86;94685.06;5070755;28;20581;-47
2023/05/27 06:40:11;;;;;;;5.07;4.57;;;;;;;19.22;79.55;94702.22;5071168;28;20187;-42
2023/05/27 06:42:38;;;;;;;6.77;4.77;;;;;;;19.22;80.37;94707.41;5071146;28;20186;-45
2023/05/27 06:45:06;;;;;;;5.47;4.77;;;;;;;19.20;80.31;94713.75;5071260;28;20186;-46
2023/05/27 06:47:34;;;;;;;5.27;4.73;;;;;;;19.19;80.69;94706.97;5070415;28;20301;-44
2023/05/27 06:50:01;;;;;;;6.37;4.67;;;;;;;19.22;80.19;94699.63;5070970;28;20201;-44
2023/05/27 06:52:27;;;;;;;5.40;4.70;;;;;;;19.27;79.70;94714.63;5071395;28;20182;-46
2023/05/27 06:54:54;;;;;;;6.57;5.73;;;;;;;19.37;80.02;94714.25;5071263;28;20194;-44
2023/05/27 06:57:21;;;;;;;6.30;5.27;;;;;;;19.41;80.06;94718.06;5071760;28;20178;-44
2023/05/27 06:59:48;;;;;;;5.93;5.37;;;;;;;19.48;79.90;94718.94;5070712;28;20216;-46
2023/05/27 07:02:15;;;;;;;8.07;5.70;;;;;;;19.42;78.77;94709.31;5070998;28;20240;-43
2023/05/27 07:04:43;;;;;;;6.63;5.27;;;;;;;19.49;79.61;94725.72;5070772;28;20252;-43
2023/05/27 07:07:09;;;;;;;7.23;5.47;;;;;;;19.48;80.05;94722.31;5070883;28;20225;-46
2023/05/27 07:09:36;;;;;;;5.73;5.23;;;;;;;19.64;79.16;94723.81;5070645;28;20190;-46
2023/05/27 07:12:03;;;;;;;7.83;5.30;;;;;;;19.65;78.95;94724.63;5070694;28;20186;-45
2023/05/27 07:14:30;;;;;;;6.77;6.10;;;;;;;19.53;78.56;94706.97;5071534;28;20198;-44
2023/05/27 07:16:57;;;;;;;8.30;5.53;;;;;;;19.73;78.20;94721.84;5070879;28;20255;-45
2023/05/27 07:19:24;;;;;;;6.53;5.93;;;;;;;19.75;78.10;94722.47;5070553;28;20187;-45
2023/05/27 07:21:52;;;;;;;7.53;4.93;;;;;;;19.77;78.27;94723.06;5070444;28;20255;-44
2023/05/27 07:24:19;;;;;;;6.17;5.37;;;;;;;19.76;77.71;94730.03;5070534;28;20194;-46
2023/05/27 07:26:48;;;;;;;6.73;5.20;;;;;;;19.74;78.29;94723.47;5069768;28;20290;-44
2023/05/27 07:29:15;;;;;;;11.63;6.20;;;;;;;19.78;78.44;94727.28;5070191;28;20187;-45
2023/05/27 07:31:42;;;;;;;7.30;4.70;;;;;;;19.76;78.69;94719.66;5070299;28;20241;-45
2023/05/27 07:34:09;;;;;;;5.70;5.20;;;;;;;19.80;78.31;94728.66;5070425;28;20195;-45
2023/05/27 07:36:35;;;;;;;6.83;5.20;;;;;;;19.76;76.96;94704.09;5070507;28;20243;-45
2023/05/27 07:39:04;;;;;;;6.87;4.93;;;;;;;19.95;77.07;94725.94;5070617;28;20221;-46
2023/05/27 07:41:31;;;;;;;8.95;5.60;;;;;;;19.91;76.79;94698.78;5069871;28;20271;-46
2023/05/27 07:43:57;;;;;;;6.20;5.47;;;;;;;20.17;76.02;94720.63;5070312;28;20190;-47
2023/05/27 07:46:24;;;;;;;6.10;5.25;;;;;;;20.27;75.54;94721.84;5070026;28;20263;-46
2023/05/27 07:48:51;;;;;;;6.40;4.70;;;;;;;20.27;75.63;94705.44;5069936;28;20225;-44
2023/05/27 07:51:18;;;;;;;6.40;4.63;;;;;;;20.58;73.43;94727.50;5070692;28;20256;-46
2023/05/27 07:53:45;;;;;;;6.28;4.93;;;;;;;20.61;73.70;94725.31;5073177;28;20182;-45
2023/05/27 07:56:13;;;;;;;5.20;4.28;;;;;;;20.66;73.53;94728.13;5072531;28;20259;-44
2023/05/27 07:58:40;;;;;;;5.40;4.82;;;;;;;20.67;72.99;94727.09;5069914;28;20236;-45
2023/05/27 08:01:06;;;;;;;7.20;5.05;;;;;;;20.64;72.37;94729.28;5069724;28;20247;-45
2023/05/27 08:03:33;;;;;;;5.38;4.88;;;;;;;20.73;72.40;94733.31;5069613;28;20576;-46
2023/05/27 08:06:00;;;;;;;5.18;4.68;;;;;;;20.76;72.12;94722.50;5069088;28;20194;-46
2023/05/27 08:08:27;;;;;;;7.70;4.55;;;;;;;20.70;72.10;94718.91;5069768;28;20275;-43
2023/05/27 08:10:53;;;;;;;4.72;4.28;;;;;;;20.85;72.04;94726.50;5069243;28;20190;-45
2023/05/27 08:13:22;;;;;;;4.80;4.35;;;;;;;21.02;70.88;94734.69;5069428;28;20194;-45
2023/05/27 08:15:48;;;;;;;4.25;3.85;;;;;;;21.10;69.13;94729.31;5069897;28;20190;-46
2023/05/27 08:18:15;;;;;;;4.78;3.88;;;;;;;21.18;69.24;94723.09;5066722;28;20194;-45
2023/05/27 08:20:42;;;;;;;4.20;3.85;;;;;;;21.27;68.39;94732.28;5047799;28;20329;-45
2023/05/27 08:23:09;;;;;;;5.95;4.07;;;;;;;21.20;67.64;94726.28;5053277;28;20224;-45
2023/05/27 08:25:36;;;;;;;8.50;4.05;;;;;;;21.19;67.04;94732.50;5070102;28;20212;-46
2023/05/27 08:28:03;;;;;;;4.80;3.80;;;;;;;21.20;66.49;94731.47;5073856;28;20237;-46
2023/05/27 08:30:31;;;;;;;7.40;4.28;;;;;;;21.09;67.36;94724.31;5075605;28;20198;-47
2023/05/27 08:32:58;;;;;;;5.38;3.55;;;;;;;21.09;67.52;94729.50;5071508;28;20197;-45
2023/05/27 08:35:25;;;;;;;5.70;4.32;;;;;;;21.13;67.07;94728.91;5069873;28;20835;-47
2023/05/27 08:37:52;;;;;;;6.05;4.10;;;;;;;21.29;66.82;94725.88;5071298;28;20639;-49
2023/05/27 08:40:19;;;;;;;3.53;3.28;;;;;;;21.32;67.04;94732.50;5073780;28;20198;-46
2023/05/27 08:42:47;;;;;;;3.90;3.60;;;;;;;21.36;66.56;94732.91;5073323;28;20198;-45
2023/05/27 08:45:14;;;;;;;5.03;3.33;;;;;;;21.22;65.56;94725.09;5069906;28;20243;-41
2023/05/27 08:47:42;;;;;;;4.05;3.22;;;;;;;21.22;65.50;94732.09;5075992;28;20209;-47
2023/05/27 08:50:10;;;;;;;4.70;3.33;;;;;;;21.05;65.50;94734.31;5076454;28;20262;-42
2023/05/27 08:52:43;;;;;;;4.60;3.70;;;;;;;21.00;66.05;94729.72;5077848;28;20225;-45
2023/05/27 08:55:12;;;;;;;4.35;3.20;;;;;;;20.73;66.40;94723.72;5074729;28;20215;-44
2023/05/27 08:57:43;;;;;;;4.00;3.53;;;;;;;20.59;66.67;94726.50;5073880;28;20186;-44
2023/05/27 09:00:13;;;;;;;4.70;3.85;;;;;;;20.43;67.56;94712.06;5077298;28;20187;-42
2023/05/27 09:02:42;;;;;;;3.80;3.50;;;;;;;20.46;68.10;94722.06;5079818;28;20532;-49
2023/05/27 09:05:10;;;;;;;4.50;3.75;;;;;;;20.50;68.02;94723.28;5078554;28;20273;-46
2023/05/27 09:07:37;;;;;;;4.07;3.63;;;;;;;20.54;68.13;94716.69;5074135;28;20313;-42
2023/05/27 09:10:06;;;;;;;4.60;4.20;;;;;;;20.52;67.71;94723.91;5073811;28;20190;-46
2023/05/27 09:12:33;;;;;;;5.67;4.10;;;;;;;20.53;67.84;94717.72;5072361;28;20189;-45
2023/05/27 09:15:00;;;;;;;4.85;3.90;;;;;;;20.58;68.36;94724.91;5073472;28;20634;-45
2023/05/27 09:17:27;;;;;;;5.13;3.65;;;;;;;20.61;68.25;94724.50;5072379;28;20186;-45
2023/05/27 09:19:55;;;;;;;4.60;4.20;;;;;;;20.61;67.00;94714.91;5072464;28;20236;-44
2023/05/27 09:22:23;;;;;;;4.55;3.92;;;;;;;20.60;67.01;94704.75;5072659;28;20561;-45
2023/05/27 09:24:51;;;;;;;4.82;4.30;;;;;;;20.74;67.30;94717.53;5072435;28;20277;-44
2023/05/27 09:27:18;;;;;;;7.97;4.50;;;;;;;20.82;67.12;94716.53;5071496;28;20230;-44
2023/05/27 09:29:45;;;;;;;4.40;4.00;;;;;;;20.83;66.96;94712.94;5072670;28;20194;-45
2023/05/27 09:32:11;;;;;;;9.20;4.82;;;;;;;20.80;67.65;94700.31;5071911;28;20267;-47
2023/05/27 09:34:42;;;;;;;5.30;4.53;;;;;;;20.83;67.25;94705.13;5072527;28;20193;-45
2023/05/27 09:37:15;;;;;;;9.23;5.43;;;;;;;20.87;67.60;94706.31;5071808;28;20269;-46
2023/05/27 09:39:42;;;;;;;5.38;4.57;;;;;;;20.92;67.60;94706.53;5071949;28;20607;-44
2023/05/27 09:42:08;;;;;;;5.50;5.00;;;;;;;20.87;68.21;94708.94;5072388;28;20198;-45
2023/05/27 09:44:40;;;;;;;9.23;5.18;;;;;;;20.74;67.42;94675.13;5071739;28;20198;-43
2023/05/27 09:47:08;;;;;;;7.13;4.63;;;;;;;20.97;66.05;94703.31;5071879;28;20220;-46
2023/05/27 09:49:38;;;;;;;5.47;4.50;;;;;;;21.15;65.94;94700.09;5071897;28;20194;-45
2023/05/27 09:52:07;;;;;;;5.35;4.57;;;;;;;21.25;65.99;94698.69;5072383;28;20195;-46
2023/05/27 09:54:36;;;;;;;6.53;4.45;;;;;;;21.53;65.67;94701.03;5072289;28;20265;-44
2023/05/27 09:57:06;;;;;;;6.30;5.10;;;;;;;21.58;65.48;94684.00;5074525;28;20622;-46
2023/05/27 09:59:34;;;;;;;5.07;4.40;;;;;;;21.89;64.38;94707.53;5073906;28;20835;-44
2023/05/27 10:02:02;;;;;;;6.25;4.63;;;;;;;21.95;63.13;94708.50;5072304;28;20190;-45
2023/05/27 10:04:29;;;;;;;5.60;4.80;;;;;;;21.97;62.80;94706.47;5072089;28;20225;-45
2023/05/27 10:06:58;;;;;;;4.00;3.60;;;;;;;22.11;61.96;94697.59;5072379;28;20198;-44
2023/05/27 10:09:25;;;;;;;7.07;4.68;;;;;;;22.32;61.34;94700.91;5072565;28;20216;-44
2023/05/27 10:11:54;;;;;;;4.82;4.43;;;;;;;22.43;60.38;94703.63;5072492;28;20186;-45
2023/05/27 10:14:22;;;;;;;5.30;3.50;;;;;;;22.64;59.97;94701.69;5070611;28;20257;-44
2023/05/27 10:16:56;;;;;;;4.68;3.83;;;;;;;22.64;60.19;94699.09;5071859;28;20669;-45
2023/05/27 10:19:23;;;;;;;7.28;4.65;;;;;;;22.69;59.95;94692.22;5071696;28;20257;-45
2023/05/27 10:21:50;;;;;;;6.35;4.10;;;;;;;22.91;59.85;94697.88;5071815;28;20347;-44
2023/05/27 10:24:17;;;;;;;5.32;4.63;;;;;;;23.11;59.38;94695.09;5071551;28;20182;-46
2023/05/27 10:26:47;;;;;;;7.47;4.10;;;;;;;23.26;59.01;94677.28;5071489;28;20218;-45
2023/05/27 10:29:18;;;;;;;5.07;3.88;;;;;;;23.51;57.99;94697.31;5071058;28;20329;-46
2023/05/27 10:31:46;;;;;;;4.32;3.92;;;;;;;23.53;57.03;94690.88;5071927;28;20234;-45
2023/05/27 10:34:13;;;;;;;6.82;4.70;;;;;;;23.40;57.49;94679.75;5071440;28;20301;-43
2023/05/27 10:36:40;;;;;;;8.30;3.90;;;;;;;23.51;57.66;94685.06;5071557;28;20198;-44
2023/05/27 10:39:13;;;;;;;5.15;4.30;;;;;;;23.53;57.28;94677.00;5071171;28;20179;-45
2023/05/27 10:41:41;;;;;;;5.75;4.43;;;;;;;23.53;57.64;94677.81;5071414;28;20191;-44
2023/05/27 10:44:08;;;;;;;5.30;4.55;;;;;;;23.65;58.28;94679.72;5071366;28;20190;-45
2023/05/27 10:46:41;;;;;;;6.40;5.10;;;;;;;23.62;57.05;94665.25;5072130;28;20190;-46
2023/05/27 10:49:13;;;;;;;5.70;4.30;;;;;;;23.56;56.90;94676.56;5072429;28;20248;-46
2023/05/27 10:51:42;;;;;;;8.75;4.20;;;;;;;23.65;57.04;94667.44;5071730;28;20201;-44
2023/05/27 10:54:09;;;;;;;4.32;3.95;;;;;;;23.76;57.40;94663.31;5071096;28;20259;-45
2023/05/27 10:56:36;;;;;;;5.82;4.50;;;;;;;23.65;56.66;94670.06;5071000;28;20260;-47
2023/05/27 10:59:03;;;;;;;4.20;3.80;;;;;;;23.58;57.06;94661.50;5071249;28;20186;-45
2023/05/27 11:01:33;;;;;;;7.05;4.15;;;;;;;23.59;57.46;94667.50;5071386;28;20349;-44
2023/05/27 11:04:01;;;;;;;4.90;4.28;;;;;;;23.61;57.19;94652.41;5071062;28;20282;-46
2023/05/27 11:06:29;;;;;;;5.97;4.65;;;;;;;23.54;58.02;94658.53;5071789;28;20661;-46
2023/05/27 11:08:55;;;;;;;5.85;5.30;;;;;;;23.46;58.10;94661.41;5072977;28;20705;-48
2023/05/27 11:11:22;;;;;;;5.30;4.15;;;;;;;23.23;57.92;94638.59;5073360;28;20665;-46
2023/05/27 11:13:49;;;;;;;4.32;3.92;;;;;;;23.33;57.99;94655.56;5073413;28;20202;-46
2023/05/27 11:16:16;;;;;;;7.50;4.78;;;;;;;23.33;58.43;94650.34;5070944;28;20189;-46
2023/05/27 11:18:44;;;;;;;4.97;4.00;;;;;;;23.43;58.75;94648.78;5070808;28;20197;-46
2023/05/27 11:21:15;;;;;;;7.20;4.53;;;;;;;23.57;58.55;94649.44;5070407;28;20194;-49
2023/05/27 11:23:44;;;;;;;5.53;3.72;;;;;;;23.62;58.03;94649.59;5070591;28;20192;-44
2023/05/27 11:26:18;;;;;;;5.93;5.22;;;;;;;23.58;57.59;94653.66;5070031;28;20217;-46
2023/05/27 11:28:53;;;;;;;4.65;4.18;;;;;;;23.53;57.36;94646.50;5070448;28;20233;-44
2023/05/27 11:31:21;;;;;;;9.40;4.68;;;;;;;23.48;57.48;94632.47;5070208;28;20185;-43
2023/05/27 11:33:50;;;;;;;4.85;4.38;;;;;;;23.39;58.45;94633.78;5070969;28;20636;-44